createdAt,value
2018-03-24T00:01:07.639Z,45.20
2018-03-24T00:03:35.094Z,41.50
2018-03-24T00:06:02.563Z,43.53
2018-03-24T00:08:30.020Z,43.90
2018-03-24T00:10:57.500Z,45.07
2018-03-24T00:13:24.960Z,46.23
2018-03-24T00:15:52.440Z,45.17
2018-03-24T00:18:19.901Z,47.37
2018-03-24T00:20:47.376Z,42.73
2018-03-24T00:23:14.839Z,42.43
2018-03-24T00:25:42.323Z,42.97
2018-03-24T00:28:09.779Z,41.93
2018-03-24T00:30:37.263Z,41.73
2018-03-24T00:33:04.716Z,43.77
2018-03-24T00:35:32.180Z,42.43
2018-03-24T00:37:59.653Z,44.63
2018-03-24T00:40:27.114Z,41.50
2018-03-24T00:42:54.581Z,44.83
2018-03-24T00:45:22.049Z,44.30
2018-03-24T00:47:49.534Z,43.90
2018-03-24T00:50:17.027Z,47.90
2018-03-24T00:52:44.496Z,46.50
2018-03-24T00:55:11.956Z,57.57
2018-03-24T00:57:39.415Z,45.13
2018-03-24T01:00:06.875Z,45.50
2018-03-24T01:02:35.131Z,48.97
2018-03-24T01:05:04.101Z,47.60
2018-03-24T01:07:31.572Z,45.33
2018-03-24T01:09:59.035Z,45.50
2018-03-24T01:12:26.525Z,46.70
2018-03-24T01:14:53.983Z,47.13
2018-03-24T01:17:21.471Z,50.70
2018-03-24T01:19:48.939Z,45.80
2018-03-24T01:22:16.411Z,47.83
2018-03-24T01:24:43.882Z,47.07
2018-03-24T01:27:11.368Z,45.70
2018-03-24T01:29:39.615Z,44.10
2018-03-24T01:32:07.076Z,47.93
2018-03-24T01:34:34.557Z,42.93
2018-03-24T01:37:02.019Z,45.67
2018-03-24T01:39:29.509Z,46.13
2018-03-24T01:41:56.967Z,47.47
2018-03-24T01:44:24.446Z,45.80
2018-03-24T01:46:51.900Z,44.03
2018-03-24T01:49:19.399Z,41.60
2018-03-24T01:51:47.636Z,43.40
2018-03-24T01:54:15.110Z,46.00
2018-03-24T01:56:42.584Z,45.90
2018-03-24T01:59:10.053Z,43.73
2018-03-24T02:01:37.513Z,44.20
2018-03-24T02:04:04.971Z,44.83
2018-03-24T02:06:32.458Z,42.97
2018-03-24T02:08:59.921Z,45.23
2018-03-24T02:11:27.410Z,42.90
2018-03-24T02:13:55.688Z,43.90
2018-03-24T02:16:23.163Z,46.60
2018-03-24T02:18:50.628Z,44.13
2018-03-24T02:21:28.004Z,44.07
2018-03-24T02:23:56.288Z,42.50
2018-03-24T02:26:23.756Z,47.60
2018-03-24T02:28:51.211Z,43.10
2018-03-24T02:31:18.691Z,47.60
2018-03-24T02:33:46.163Z,45.40
2018-03-24T02:36:13.642Z,43.80
2018-03-24T02:38:41.107Z,47.00
2018-03-24T02:41:08.570Z,44.13
2018-03-24T02:43:36.817Z,46.13
2018-03-24T02:46:04.272Z,50.57
2018-03-24T02:48:31.755Z,46.60
2018-03-24T02:50:59.223Z,50.40
2018-03-24T02:53:26.692Z,41.33
2018-03-24T02:55:54.175Z,43.43
2018-03-24T02:58:21.701Z,44.13
2018-03-24T03:00:49.955Z,48.50
2018-03-24T03:03:17.444Z,43.50
2018-03-24T03:05:44.916Z,48.47
2018-03-24T03:08:12.401Z,43.77
2018-03-24T03:10:39.864Z,45.37
2018-03-24T03:13:07.394Z,44.17
2018-03-24T03:15:35.570Z,45.73
2018-03-24T03:18:03.052Z,42.87
2018-03-24T03:20:30.519Z,49.57
2018-03-24T03:22:58.002Z,48.53
2018-03-24T03:25:25.451Z,44.17
2018-03-24T03:27:52.991Z,42.87
2018-03-24T03:30:26.209Z,46.30
2018-03-24T03:32:53.688Z,43.70
2018-03-24T03:35:21.152Z,51.37
2018-03-24T03:37:48.624Z,46.37
2018-03-24T03:40:16.100Z,41.47
2018-03-24T03:42:43.575Z,48.50
2018-03-24T03:45:11.032Z,43.40
2018-03-24T03:47:38.488Z,48.73
2018-03-24T03:50:05.956Z,47.07
2018-03-24T03:52:34.197Z,46.97
2018-03-24T03:55:01.671Z,44.67
2018-03-24T03:57:29.147Z,43.97
2018-03-24T03:59:56.616Z,46.80
2018-03-24T04:02:24.079Z,43.50
2018-03-24T04:04:51.560Z,45.60
2018-03-24T04:07:19.019Z,46.03
2018-03-24T04:09:46.496Z,46.83
2018-03-24T04:12:13.956Z,44.67
2018-03-24T04:14:41.437Z,45.83
2018-03-24T04:17:08.901Z,45.93
2018-03-24T04:19:37.139Z,48.77
2018-03-24T04:22:04.601Z,45.70
2018-03-24T04:24:32.108Z,47.60
2018-03-24T04:26:59.573Z,50.03
2018-03-24T04:29:27.057Z,43.50
2018-03-24T04:31:54.528Z,49.03
2018-03-24T04:34:21.988Z,46.07
2018-03-24T04:36:49.465Z,50.93
2018-03-24T04:39:16.936Z,42.93
2018-03-24T04:41:44.408Z,48.33
2018-03-24T04:44:12.628Z,46.97
2018-03-24T04:46:40.091Z,50.87
2018-03-24T04:49:07.571Z,42.20
2018-03-24T04:51:35.049Z,46.87
2018-03-24T04:54:02.540Z,49.03
2018-03-24T04:56:30.015Z,44.00
2018-03-24T04:58:57.505Z,47.80
2018-03-24T05:01:25.774Z,46.27
2018-03-24T05:03:53.242Z,42.37
2018-03-24T05:06:20.740Z,45.33
2018-03-24T05:08:48.216Z,46.80
2018-03-24T05:11:15.706Z,47.70
2018-03-24T05:13:43.180Z,43.73
2018-03-24T05:16:11.412Z,48.80
2018-03-24T05:18:38.896Z,47.80
2018-03-24T05:21:06.412Z,42.40
2018-03-24T05:23:33.878Z,42.63
2018-03-24T05:26:01.374Z,40.43
2018-03-24T05:28:29.611Z,42.57
2018-03-24T05:30:57.074Z,42.83
2018-03-24T05:33:24.533Z,47.87
2018-03-24T05:35:52.018Z,45.67
2018-03-24T05:38:19.498Z,45.27
2018-03-24T05:40:47.191Z,42.30
2018-03-24T05:43:14.660Z,41.17
2018-03-24T05:45:42.124Z,42.60
2018-03-24T05:48:09.588Z,43.53
2018-03-24T05:50:37.054Z,45.03
2018-03-24T05:53:04.544Z,44.40
2018-03-24T05:55:32.000Z,46.77
2018-03-24T05:57:59.483Z,43.80
2018-03-24T06:00:26.951Z,45.47
2018-03-24T06:02:54.433Z,47.13
2018-03-24T06:05:21.943Z,48.93
2018-03-24T06:07:49.384Z,47.93
2018-03-24T06:10:17.602Z,44.97
2018-03-24T06:12:45.077Z,48.33
2018-03-24T06:15:12.532Z,47.70
2018-03-24T06:17:39.996Z,46.83
2018-03-24T06:20:07.455Z,47.27
2018-03-24T06:22:34.939Z,47.40
2018-03-24T06:25:02.399Z,52.27
2018-03-24T06:27:29.877Z,50.53
2018-03-24T06:29:57.343Z,52.03
2018-03-24T06:32:24.832Z,50.50
2018-03-24T06:34:52.304Z,49.10
2018-03-24T06:37:20.679Z,50.40
2018-03-24T06:39:48.143Z,49.33
2018-03-24T06:42:16.375Z,49.40
2018-03-24T06:44:43.858Z,48.07
2018-03-24T06:47:11.324Z,49.93
2018-03-24T06:49:38.796Z,47.20
2018-03-24T06:52:06.253Z,46.77
2018-03-24T06:54:33.731Z,48.03
2018-03-24T06:57:01.196Z,45.33
2018-03-24T06:59:28.673Z,44.37
2018-03-24T07:01:56.138Z,41.63
2018-03-24T07:04:23.611Z,41.73
2018-03-24T07:06:51.073Z,40.60
2018-03-24T07:09:18.555Z,39.23
2018-03-24T07:11:46.804Z,38.03
2018-03-24T07:14:14.283Z,37.93
2018-03-24T07:16:41.754Z,37.40
2018-03-24T07:19:09.240Z,36.77
2018-03-24T07:21:36.738Z,40.87
2018-03-24T07:24:04.216Z,36.37
2018-03-24T07:26:32.440Z,38.97
2018-03-24T07:28:59.951Z,39.80
2018-03-24T07:31:27.404Z,39.83
2018-03-24T07:33:54.896Z,37.13
2018-03-24T07:36:22.347Z,38.13
2018-03-24T07:38:49.803Z,36.87
2018-03-24T07:41:17.274Z,37.60
2018-03-24T07:43:44.732Z,40.47
2018-03-24T07:46:12.208Z,38.93
2018-03-24T07:48:39.673Z,39.93
2018-03-24T07:51:07.151Z,35.97
2018-03-24T07:53:35.389Z,43.17
2018-03-24T07:56:02.854Z,36.20
2018-03-24T07:58:30.349Z,39.13
2018-03-24T08:00:57.812Z,38.63
2018-03-24T08:03:25.267Z,37.90
2018-03-24T08:05:52.731Z,42.50
2018-03-24T08:08:20.187Z,38.87
2018-03-24T08:10:47.660Z,40.57
2018-03-24T08:13:15.150Z,44.13
2018-03-24T08:15:42.639Z,39.67
2018-03-24T08:18:10.886Z,40.53
2018-03-24T08:20:38.372Z,41.43
2018-03-24T08:23:05.859Z,41.53
2018-03-24T08:25:33.316Z,40.73
2018-03-24T08:28:00.789Z,37.50
2018-03-24T08:30:28.306Z,38.63
2018-03-24T08:32:55.736Z,42.67
2018-03-24T08:37:57.156Z,40.37
2018-03-24T08:40:24.611Z,39.83
2018-03-24T08:42:52.090Z,40.07
2018-03-24T08:45:19.551Z,39.27
2018-03-24T08:47:47.028Z,34.77
2018-03-24T08:50:14.503Z,38.67
2018-03-24T08:52:41.975Z,37.33
2018-03-24T08:55:09.467Z,38.87
2018-03-24T08:57:36.944Z,37.90
2018-03-24T09:00:04.405Z,38.17
2018-03-24T09:02:31.875Z,37.70
2018-03-24T09:04:59.511Z,39.13
2018-03-24T09:07:27.086Z,37.77
2018-03-24T09:09:54.513Z,35.93
2018-03-24T09:12:21.980Z,37.00
2018-03-24T09:14:49.488Z,39.43
2018-03-24T09:17:16.970Z,35.23
2018-03-24T09:19:44.447Z,39.30
2018-03-24T09:22:11.982Z,34.07
2018-03-24T09:24:39.456Z,37.23
2018-03-24T09:27:06.919Z,34.13
2018-03-24T09:29:34.386Z,30.80
2018-03-24T09:32:01.935Z,30.20
2018-03-24T09:34:29.488Z,29.07
2018-03-24T09:36:56.963Z,28.13
2018-03-24T09:39:24.440Z,26.40
2018-03-24T09:41:51.896Z,31.13
2018-03-24T09:44:19.388Z,28.60
2018-03-24T09:46:46.885Z,31.30
2018-03-24T09:49:14.365Z,27.23
2018-03-24T09:51:41.828Z,23.57
2018-03-24T09:54:09.313Z,22.47
2018-03-24T09:56:36.783Z,20.67
2018-03-24T09:59:04.249Z,20.93
2018-03-24T10:01:31.763Z,23.67
2018-03-24T10:03:59.244Z,20.40
2018-03-24T10:06:26.707Z,21.27
2018-03-24T10:08:54.179Z,20.50
2018-03-24T10:11:21.635Z,18.50
2018-03-24T10:13:49.097Z,19.70
2018-03-24T10:16:16.571Z,19.20
2018-03-24T10:18:44.038Z,19.27
2018-03-24T10:21:21.442Z,19.50
2018-03-24T10:23:50.550Z,18.07
2018-03-24T10:26:18.192Z,19.83
2018-03-24T10:28:45.668Z,21.27
2018-03-24T10:31:13.198Z,22.70
2018-03-24T10:33:46.263Z,19.50
2018-03-24T10:36:13.745Z,18.30
2018-03-24T10:38:41.261Z,15.07
2018-03-24T10:41:08.735Z,16.77
2018-03-24T10:43:39.119Z,16.37
2018-03-24T10:46:06.624Z,16.23
2018-03-24T10:48:34.071Z,16.47
2018-03-24T10:51:01.570Z,18.20
2018-03-24T10:53:29.041Z,15.27
2018-03-24T10:55:57.289Z,17.40
2018-03-24T10:58:24.747Z,15.73
2018-03-24T11:00:57.858Z,14.40
2018-03-24T11:03:25.355Z,14.00
2018-03-24T11:05:52.817Z,11.67
2018-03-24T11:08:20.291Z,12.37
2018-03-24T11:10:47.819Z,12.37
2018-03-24T11:13:15.289Z,9.27
2018-03-24T11:15:42.747Z,9.43
2018-03-24T11:18:10.380Z,11.87
2018-03-24T11:20:38.601Z,9.33
2018-03-24T11:23:06.066Z,12.67
2018-03-24T11:25:33.534Z,10.53
2018-03-24T11:28:01.002Z,10.30
2018-03-24T11:30:28.455Z,13.47
2018-03-24T11:32:55.965Z,9.73
2018-03-24T11:35:23.432Z,9.20
2018-03-24T11:37:50.924Z,11.10
2018-03-24T11:40:18.388Z,16.50
2018-03-24T11:42:45.867Z,14.53
2018-03-24T11:45:14.112Z,13.60
2018-03-24T11:47:41.590Z,14.90
2018-03-24T11:50:09.061Z,13.93
2018-03-24T11:52:36.551Z,13.40
2018-03-24T11:55:04.013Z,13.43
2018-03-24T11:57:31.472Z,12.30
2018-03-24T12:00:04.673Z,12.10
2018-03-24T12:02:32.131Z,14.20
2018-03-24T12:04:59.611Z,13.60
2018-03-24T12:07:27.079Z,14.63
2018-03-24T12:09:54.562Z,14.63
2018-03-24T12:12:22.032Z,13.77
2018-03-24T12:14:49.543Z,17.27
2018-03-24T12:17:17.008Z,14.03
2018-03-24T12:19:45.253Z,14.80
2018-03-24T12:22:12.760Z,14.87
2018-03-24T12:24:40.216Z,13.57
2018-03-24T12:27:07.692Z,16.73
2018-03-24T12:29:35.171Z,16.77
2018-03-24T12:32:02.654Z,17.50
2018-03-24T12:34:30.131Z,17.50
2018-03-24T12:36:58.376Z,16.97
2018-03-24T12:39:25.852Z,17.37
2018-03-24T12:41:53.341Z,18.57
2018-03-24T12:44:20.822Z,17.73
2018-03-24T12:46:48.295Z,16.67
2018-03-24T12:49:15.751Z,17.73
2018-03-24T12:51:43.241Z,18.20
2018-03-24T12:54:11.468Z,17.17
2018-03-24T12:56:38.936Z,18.10
2018-03-24T12:59:06.399Z,16.03
2018-03-24T13:01:34.647Z,17.10
2018-03-24T13:04:02.120Z,18.03
2018-03-24T13:06:29.591Z,17.00
2018-03-24T13:08:57.072Z,14.17
2018-03-24T13:11:24.559Z,15.47
2018-03-24T13:13:52.169Z,15.53
2018-03-24T13:16:19.657Z,16.07
2018-03-24T13:18:47.892Z,16.83
2018-03-24T13:21:15.359Z,15.30
2018-03-24T13:23:42.824Z,16.70
2018-03-24T13:26:10.312Z,15.80
2018-03-24T13:28:37.792Z,16.70
2018-03-24T13:31:05.267Z,15.13
2018-03-24T13:33:32.744Z,15.53
2018-03-24T13:36:00.227Z,17.33
2018-03-24T13:38:28.456Z,14.80
2018-03-24T13:40:55.936Z,15.00
2018-03-24T13:43:23.399Z,14.20
2018-03-24T13:45:50.861Z,19.67
2018-03-24T13:48:18.335Z,15.00
2018-03-24T13:50:45.824Z,18.13
2018-03-24T13:53:14.119Z,13.93
2018-03-24T13:55:41.608Z,16.73
2018-03-24T13:58:09.080Z,16.23
2018-03-24T14:00:36.554Z,14.87
2018-03-24T14:03:04.034Z,12.93
2018-03-24T14:05:31.515Z,14.43
2018-03-24T14:07:58.996Z,14.13
2018-03-24T14:10:26.469Z,13.17
2018-03-24T14:12:54.704Z,13.70
2018-03-24T14:15:22.178Z,13.63
2018-03-24T14:17:49.639Z,13.10
2018-03-24T14:20:17.152Z,13.10
2018-03-24T14:22:44.632Z,13.40
2018-03-24T14:25:12.088Z,12.53
2018-03-24T14:27:39.563Z,14.37
2018-03-24T14:30:07.028Z,13.17
2018-03-24T14:32:34.523Z,16.93
2018-03-24T14:35:01.999Z,15.20
2018-03-24T14:37:29.499Z,12.77
2018-03-24T14:39:56.965Z,13.20
2018-03-24T14:42:24.423Z,14.70
2018-03-24T14:44:51.907Z,12.37
2018-03-24T14:47:19.372Z,13.07
2018-03-24T14:49:46.864Z,12.97
2018-03-24T14:52:14.319Z,13.23
2018-03-24T14:54:41.783Z,11.93
2018-03-24T14:57:09.257Z,12.90
2018-03-24T14:59:36.724Z,15.17
2018-03-24T15:02:04.192Z,13.00
2018-03-24T15:04:32.443Z,15.07
2018-03-24T15:06:59.904Z,12.33
2018-03-24T15:09:27.372Z,14.33
2018-03-24T15:11:54.859Z,14.17
2018-03-24T15:14:22.336Z,14.50
2018-03-24T15:16:49.813Z,14.10
2018-03-24T15:19:17.278Z,16.03
2018-03-24T15:21:44.760Z,13.00
2018-03-24T15:24:13.007Z,14.37
2018-03-24T15:26:40.472Z,12.13
2018-03-24T15:29:19.700Z,16.13
2018-03-24T15:31:59.044Z,12.70
2018-03-24T15:34:38.384Z,13.40
2018-03-24T15:37:06.632Z,14.10
2018-03-24T15:39:34.100Z,14.33
2018-03-24T15:42:01.566Z,15.17
2018-03-24T15:44:29.036Z,14.73
2018-03-24T15:46:57.277Z,14.10
2018-03-24T15:49:24.764Z,16.40
2018-03-24T15:51:52.228Z,13.90
2018-03-24T15:54:19.743Z,13.63
2018-03-24T15:56:47.184Z,15.00
2018-03-24T15:59:14.644Z,14.60
2018-03-24T16:01:42.140Z,15.63
2018-03-24T16:04:09.605Z,15.17
2018-03-24T16:06:37.078Z,17.27
2018-03-24T16:09:05.315Z,16.80
2018-03-24T16:11:32.799Z,16.57
2018-03-24T16:14:00.281Z,14.47
2018-03-24T16:16:27.768Z,14.63
2018-03-24T16:18:55.249Z,14.37
2018-03-24T16:21:22.785Z,13.57
2018-03-24T16:23:50.250Z,13.80
2018-03-24T16:26:17.736Z,17.57
2018-03-24T16:28:46.000Z,15.53
2018-03-24T16:31:13.480Z,14.57
2018-03-24T16:33:40.954Z,14.43
2018-03-24T16:36:08.452Z,15.03
2018-03-24T16:38:35.925Z,15.40
2018-03-24T16:41:03.388Z,14.07
2018-03-24T16:43:30.867Z,14.07
2018-03-24T16:45:59.099Z,13.93
2018-03-24T16:48:26.580Z,13.67
2018-03-24T16:50:54.066Z,14.70
2018-03-24T16:53:22.328Z,15.67
2018-03-24T16:55:49.830Z,14.27
2018-03-24T16:58:17.339Z,15.83
2018-03-24T17:00:44.811Z,18.00
2018-03-24T17:03:13.048Z,13.97
2018-03-24T17:05:40.527Z,16.10
2018-03-24T17:08:07.999Z,19.87
2018-03-24T17:10:35.474Z,14.50
2018-03-24T17:13:02.956Z,15.20
2018-03-24T17:15:30.451Z,15.40
2018-03-24T17:17:57.928Z,13.83
2018-03-24T17:20:25.418Z,16.73
2018-03-24T17:22:52.899Z,15.30
2018-03-24T17:25:20.376Z,16.83
2018-03-24T17:27:47.848Z,14.33
2018-03-24T17:30:16.107Z,15.70
2018-03-24T17:32:43.575Z,18.67
2018-03-24T17:35:11.044Z,14.87
2018-03-24T17:37:38.514Z,15.40
2018-03-24T17:40:05.988Z,16.73
2018-03-24T17:42:33.479Z,20.77
2018-03-24T17:45:00.968Z,15.97
2018-03-24T17:47:29.207Z,19.53
2018-03-24T17:49:56.692Z,20.23
2018-03-24T17:52:24.156Z,15.43
2018-03-24T17:54:51.628Z,18.73
2018-03-24T17:57:19.096Z,18.80
2018-03-24T17:59:46.577Z,23.97
2018-03-24T18:02:14.046Z,19.27
2018-03-24T18:04:41.535Z,19.33
2018-03-24T18:07:09.736Z,20.13
2018-03-24T18:09:38.239Z,19.33
2018-03-24T18:12:05.817Z,21.60
2018-03-24T18:14:34.309Z,25.93
2018-03-24T18:17:01.788Z,24.03
2018-03-24T18:19:29.314Z,22.10
2018-03-24T18:21:56.827Z,19.17
2018-03-24T18:24:25.787Z,21.47
2018-03-24T18:26:53.380Z,20.53
2018-03-24T18:29:20.941Z,21.07
2018-03-24T18:31:48.540Z,27.40
2018-03-24T18:34:16.053Z,19.90
2018-03-24T18:36:43.630Z,28.80
2018-03-24T18:39:11.213Z,24.33
2018-03-24T18:41:38.710Z,25.03
2018-03-24T18:44:06.261Z,32.37
2018-03-24T18:46:33.773Z,27.10
2018-03-24T18:49:01.287Z,27.67
2018-03-24T18:51:28.925Z,23.70
2018-03-24T18:53:56.481Z,28.23
2018-03-24T18:56:24.069Z,19.97
2018-03-24T18:58:51.724Z,21.70
2018-03-24T19:01:19.246Z,20.27
2018-03-24T19:03:46.752Z,27.30
2018-03-24T19:06:14.308Z,19.30
2018-03-24T19:08:42.649Z,19.70
2018-03-24T19:11:10.195Z,22.77
2018-03-24T19:13:37.750Z,25.87
2018-03-24T19:16:05.248Z,20.03
2018-03-24T19:18:32.846Z,23.07
2018-03-24T19:21:00.426Z,28.73
2018-03-24T19:23:28.732Z,29.10
2018-03-24T19:25:56.273Z,27.60
2018-03-24T19:28:23.810Z,28.30
2018-03-24T19:30:51.352Z,33.73
2018-03-24T19:33:18.880Z,26.17
2018-03-24T19:35:46.400Z,32.27
2018-03-24T19:38:13.979Z,30.17
2018-03-24T19:40:42.288Z,28.90
2018-03-24T19:43:09.835Z,25.17
2018-03-24T19:45:37.353Z,25.60
2018-03-24T19:48:04.965Z,33.08
2018-03-24T19:50:32.670Z,24.97
2018-03-24T19:53:00.237Z,26.87
2018-03-24T19:55:27.748Z,24.90
2018-03-24T19:57:55.259Z,25.13
2018-03-24T20:00:22.824Z,29.07
2018-03-24T20:02:50.313Z,28.17
2018-03-24T20:05:17.840Z,27.93
2018-03-24T20:07:45.407Z,30.70
2018-03-24T20:10:12.943Z,29.13
2018-03-24T20:12:40.481Z,32.43
2018-03-24T20:15:08.091Z,31.73
2018-03-24T20:17:35.621Z,30.43
2018-03-24T20:20:04.030Z,37.37
2018-03-24T20:22:31.568Z,34.57
2018-03-24T20:24:59.123Z,27.10
2018-03-24T20:27:26.710Z,28.10
2018-03-24T20:29:54.250Z,26.97
2018-03-24T20:32:21.751Z,29.77
2018-03-24T20:34:50.180Z,31.07
2018-03-24T20:37:17.692Z,28.40
2018-03-24T20:39:45.248Z,45.40
2018-03-24T20:42:12.827Z,36.10
2018-03-24T20:44:40.368Z,36.07
2018-03-24T20:47:07.871Z,49.30
2018-03-24T20:49:35.491Z,35.13
2018-03-24T20:52:02.983Z,32.40
2018-03-24T20:54:30.591Z,25.73
2018-03-24T20:56:58.115Z,26.93
2018-03-24T20:59:25.692Z,29.00
2018-03-24T21:01:53.253Z,29.73
2018-03-24T21:04:20.751Z,30.43
2018-03-24T21:06:48.293Z,36.83
2018-03-24T21:09:15.906Z,31.57
2018-03-24T21:11:43.539Z,32.50
2018-03-24T21:14:11.080Z,30.43
2018-03-24T21:16:39.396Z,30.13
2018-03-24T21:19:06.909Z,36.40
2018-03-24T21:21:35.254Z,31.97
2018-03-24T21:24:02.811Z,36.40
2018-03-24T21:26:30.416Z,63.10
2018-03-24T21:28:57.948Z,31.13
2018-03-24T21:31:25.553Z,33.37
2018-03-24T21:33:53.104Z,33.27
2018-03-24T21:36:20.620Z,32.03
2018-03-24T21:38:48.227Z,33.23
2018-03-24T21:41:15.788Z,42.87
2018-03-24T21:43:43.294Z,29.20
2018-03-24T21:46:11.534Z,30.47
2018-03-24T21:48:39.178Z,28.70
2018-03-24T21:51:07.479Z,32.80
2018-03-24T21:53:35.090Z,25.57
2018-03-24T21:56:02.581Z,26.43
2018-03-24T21:58:30.100Z,26.63
2018-03-24T22:00:57.641Z,30.10
2018-03-24T22:03:25.238Z,29.73
2018-03-24T22:05:52.848Z,28.40
2018-03-24T22:08:20.408Z,26.77
2018-03-24T22:10:48.023Z,29.47
2018-03-24T22:13:15.583Z,26.97
2018-03-24T22:15:43.148Z,26.97
2018-03-24T22:18:10.698Z,26.73
2018-03-24T22:20:38.221Z,26.43
2018-03-24T22:23:05.816Z,27.43
2018-03-24T22:25:34.150Z,25.03
2018-03-24T22:28:01.676Z,30.43
2018-03-24T22:30:29.185Z,27.83
2018-03-24T22:32:56.712Z,30.50
2018-03-24T22:35:24.218Z,28.70
2018-03-24T22:37:51.871Z,29.47
2018-03-24T22:40:19.402Z,25.80
2018-03-24T22:42:47.009Z,33.00
2018-03-24T22:45:14.526Z,29.40
2018-03-24T22:47:42.094Z,29.03
2018-03-24T22:50:09.603Z,29.83
2018-03-24T22:52:37.103Z,27.67
2018-03-24T22:55:04.678Z,27.77
2018-03-24T22:57:32.177Z,28.77
2018-03-24T22:59:59.762Z,29.43
2018-03-24T23:02:27.287Z,28.93
2018-03-24T23:04:54.906Z,29.53
2018-03-24T23:07:22.552Z,28.13
2018-03-24T23:09:50.092Z,30.70
2018-03-24T23:12:17.606Z,28.07
2018-03-24T23:14:45.160Z,28.30
2018-03-24T23:17:12.660Z,25.67
2018-03-24T23:19:40.330Z,26.53
2018-03-24T23:22:07.910Z,25.60
2018-03-24T23:24:35.493Z,26.90
2018-03-24T23:27:03.816Z,28.40
2018-03-24T23:29:31.374Z,34.47
2018-03-24T23:31:58.909Z,29.07
2018-03-24T23:34:26.512Z,29.97
2018-03-24T23:36:54.069Z,32.10
2018-03-24T23:39:21.704Z,31.27
2018-03-24T23:41:49.230Z,27.17
2018-03-24T23:44:16.748Z,40.23
2018-03-24T23:46:44.362Z,33.80
2018-03-24T23:49:11.919Z,34.43
2018-03-24T23:51:40.291Z,34.07
2018-03-24T23:54:07.755Z,29.20
2018-03-24T23:56:35.309Z,33.93
2018-03-24T23:59:02.870Z,49.73
